sensor_id;sensor_type;location;lat;lon;timestamp;P1;P2;P0
66159;PMS5003;52960;50.810;20.620;2022-07-15T00:00:02;8;8;6
66159;PMS5003;52960;50.810;20.620;2022-07-15T00:07:08;9;9;6
66159;PMS5003;52960;50.810;20.620;2022-07-15T00:14:17;9;9;6
66159;PMS5003;52960;50.810;20.620;2022-07-15T00:21:04;9;9;6
66159;PMS5003;52960;50.810;20.620;2022-07-15T00:28:08;9;9;6
66159;PMS5003;52960;50.810;20.620;2022-07-15T00:35:15;12;12;8
66159;PMS5003;52960;50.810;20.620;2022-07-15T00:42:04;12;12;8
66159;PMS5003;52960;50.810;20.620;2022-07-15T00:49:22;12;12;8
66159;PMS5003;52960;50.810;20.620;2022-07-15T00:56:24;12;12;8
66159;PMS5003;52960;50.810;20.620;2022-07-15T01:00:13;12;12;8
66159;PMS5003;52960;50.810;20.620;2022-07-15T01:07:03;15;12;9
66159;PMS5003;52960;50.810;20.620;2022-07-15T01:14:08;15;12;9
66159;PMS5003;52960;50.810;20.620;2022-07-15T01:21:03;15;12;9
66159;PMS5003;52960;50.810;20.620;2022-07-15T01:28:23;15;12;9
66159;PMS5003;52960;50.810;20.620;2022-07-15T01:35:16;13;12;8
66159;PMS5003;52960;50.810;20.620;2022-07-15T01:42:19;13;12;8
66159;PMS5003;52960;50.810;20.620;2022-07-15T01:49:02;13;12;8
66159;PMS5003;52960;50.810;20.620;2022-07-15T01:56:16;13;12;8
66159;PMS5003;52960;50.810;20.620;2022-07-15T02:00:15;13;12;8
66159;PMS5003;52960;50.810;20.620;2022-07-15T02:07:16;19;16;10
66159;PMS5003;52960;50.810;20.620;2022-07-15T02:14:07;19;16;10
66159;PMS5003;52960;50.810;20.620;2022-07-15T02:21:14;19;16;10
66159;PMS5003;52960;50.810;20.620;2022-07-15T02:28:07;19;16;10
66159;PMS5003;52960;50.810;20.620;2022-07-15T02:35:07;23;18;12
66159;PMS5003;52960;50.810;20.620;2022-07-15T02:42:06;23;18;12
66159;PMS5003;52960;50.810;20.620;2022-07-15T02:49:17;23;18;12
66159;PMS5003;52960;50.810;20.620;2022-07-15T02:56:08;23;18;12
66159;PMS5003;52960;50.810;20.620;2022-07-15T03:00:03;23;18;12
66159;PMS5003;52960;50.810;20.620;2022-07-15T03:07:02;19;15;10
66159;PMS5003;52960;50.810;20.620;2022-07-15T03:14:18;19;15;10
66159;PMS5003;52960;50.810;20.620;2022-07-15T03:21:07;19;15;10
66159;PMS5003;52960;50.810;20.620;2022-07-15T03:28:14;19;15;10
66159;PMS5003;52960;50.810;20.620;2022-07-15T03:35:11;19;14;10
66159;PMS5003;52960;50.810;20.620;2022-07-15T03:42:18;19;14;10
66159;PMS5003;52960;50.810;20.620;2022-07-15T03:49:02;19;14;10
66159;PMS5003;52960;50.810;20.620;2022-07-15T03:56:18;19;14;10
66159;PMS5003;52960;50.810;20.620;2022-07-15T04:00:08;19;14;10
66159;PMS5003;52960;50.810;20.620;2022-07-15T04:07:05;14;12;10
66159;PMS5003;52960;50.810;20.620;2022-07-15T04:14:04;14;12;10
66159;PMS5003;52960;50.810;20.620;2022-07-15T04:21:15;14;12;10
66159;PMS5003;52960;50.810;20.620;2022-07-15T04:28:04;14;12;10
66159;PMS5003;52960;50.810;20.620;2022-07-15T04:35:12;16;13;9
66159;PMS5003;52960;50.810;20.620;2022-07-15T04:42:17;16;13;9
66159;PMS5003;52960;50.810;20.620;2022-07-15T04:56:20;16;13;9
66159;PMS5003;52960;50.810;20.620;2022-07-15T05:00:14;16;13;9
66159;PMS5003;52960;50.810;20.620;2022-07-15T05:07:18;5;5;3
66159;PMS5003;52960;50.810;20.620;2022-07-15T05:14:16;5;5;3
66159;PMS5003;52960;50.810;20.620;2022-07-15T05:21:17;5;5;3
66159;PMS5003;52960;50.810;20.620;2022-07-15T05:28:05;5;5;3
66159;PMS5003;52960;50.810;20.620;2022-07-15T05:42:04;5;4;3
66159;PMS5003;52960;50.810;20.620;2022-07-15T05:49:22;5;4;3
66159;PMS5003;52960;50.810;20.620;2022-07-15T05:56:17;5;4;3
66159;PMS5003;52960;50.810;20.620;2022-07-15T06:00:15;5;4;3
66159;PMS5003;52960;50.810;20.620;2022-07-15T06:07:16;4;3;2
66159;PMS5003;52960;50.810;20.620;2022-07-15T06:14:06;4;3;2
66159;PMS5003;52960;50.810;20.620;2022-07-15T06:21:15;4;3;2
66159;PMS5003;52960;50.810;20.620;2022-07-15T06:28:08;4;3;2
66159;PMS5003;52960;50.810;20.620;2022-07-15T06:35:27;3;2;1
66159;PMS5003;52960;50.810;20.620;2022-07-15T06:42:02;3;2;1
66159;PMS5003;52960;50.810;20.620;2022-07-15T06:49:20;3;2;1
66159;PMS5003;52960;50.810;20.620;2022-07-15T06:56:03;3;2;1
66159;PMS5003;52960;50.810;20.620;2022-07-15T07:00:11;3;2;1
66159;PMS5003;52960;50.810;20.620;2022-07-15T07:07:16;0;0;0
66159;PMS5003;52960;50.810;20.620;2022-07-15T07:14:19;0;0;0
66159;PMS5003;52960;50.810;20.620;2022-07-15T07:21:21;0;0;0
66159;PMS5003;52960;50.810;20.620;2022-07-15T07:28:16;0;0;0
66159;PMS5003;52960;50.810;20.620;2022-07-15T07:35:18;2;1;0
66159;PMS5003;52960;50.810;20.620;2022-07-15T07:42:19;2;1;0
66159;PMS5003;52960;50.810;20.620;2022-07-15T07:49:23;2;1;0
66159;PMS5003;52960;50.810;20.620;2022-07-15T07:56:20;2;1;0
66159;PMS5003;52960;50.810;20.620;2022-07-15T08:00:35;2;1;0
66159;PMS5003;52960;50.810;20.620;2022-07-15T08:07:07;3;3;3
66159;PMS5003;52960;50.810;20.620;2022-07-15T08:14:18;3;3;3
66159;PMS5003;52960;50.810;20.620;2022-07-15T08:21:17;3;3;3
66159;PMS5003;52960;50.810;20.620;2022-07-15T08:28:20;3;3;3
66159;PMS5003;52960;50.810;20.620;2022-07-15T08:42:19;2;2;1
66159;PMS5003;52960;50.810;20.620;2022-07-15T08:49:20;2;2;1
66159;PMS5003;52960;50.810;20.620;2022-07-15T08:56:17;2;2;1
66159;PMS5003;52960;50.810;20.620;2022-07-15T09:00:11;2;2;1
66159;PMS5003;52960;50.810;20.620;2022-07-15T09:14:01;2;2;1
66159;PMS5003;52960;50.810;20.620;2022-07-15T09:21:21;2;2;1
66159;PMS5003;52960;50.810;20.620;2022-07-15T09:28:18;2;2;1
66159;PMS5003;52960;50.810;20.620;2022-07-15T09:42:08;1;1;0
66159;PMS5003;52960;50.810;20.620;2022-07-15T09:49:05;1;1;0
66159;PMS5003;52960;50.810;20.620;2022-07-15T09:56:08;0;0;0
66159;PMS5003;52960;50.810;20.620;2022-07-15T10:00:19;0;0;0
66159;PMS5003;52960;50.810;20.620;2022-07-15T10:07:12;0;0;0
66159;PMS5003;52960;50.810;20.620;2022-07-15T10:35:02;0;0;0
66159;PMS5003;52960;50.810;20.620;2022-07-15T11:00:01;0;0;0
66159;PMS5003;52960;50.810;20.620;2022-07-15T11:21:02;1;0;0
66159;PMS5003;52960;50.810;20.620;2022-07-15T11:28:04;1;0;0
66159;PMS5003;52960;50.810;20.620;2022-07-15T11:35:02;1;0;0
66159;PMS5003;52960;50.810;20.620;2022-07-15T12:00:13;0;0;0
66159;PMS5003;52960;50.810;20.620;2022-07-15T14:21:13;0;0;0
66159;PMS5003;52960;50.810;20.620;2022-07-15T14:42:03;0;0;0
66159;PMS5003;52960;50.810;20.620;2022-07-15T14:56:05;0;0;0
66159;PMS5003;52960;50.810;20.620;2022-07-15T15:07:14;0;0;0
66159;PMS5003;52960;50.810;20.620;2022-07-15T16:14:03;0;0;0
66159;PMS5003;52960;50.810;20.620;2022-07-15T16:56:05;1;1;0
66159;PMS5003;52960;50.810;20.620;2022-07-15T19:35:20;2;2;1
66159;PMS5003;52960;50.810;20.620;2022-07-15T20:00:30;5;3;2
66159;PMS5003;52960;50.810;20.620;2022-07-15T20:21:13;10;8;5
66159;PMS5003;52960;50.810;20.620;2022-07-15T20:28:03;10;8;5
66159;PMS5003;52960;50.810;20.620;2022-07-15T21:07:03;8;7;6
66159;PMS5003;52960;50.810;20.620;2022-07-15T21:21:02;7;5;3
66159;PMS5003;52960;50.810;20.620;2022-07-15T21:28:14;7;5;3
66159;PMS5003;52960;50.810;20.620;2022-07-15T22:00:05;9;7;6
66159;PMS5003;52960;50.810;20.620;2022-07-15T22:14:13;4;4;3
66159;PMS5003;52960;50.810;20.620;2022-07-15T22:28:02;4;4;3
66159;PMS5003;52960;50.810;20.620;2022-07-15T22:42:13;5;4;3
66159;PMS5003;52960;50.810;20.620;2022-07-15T23:07:02;8;6;3
66159;PMS5003;52960;50.810;20.620;2022-07-15T23:56:02;7;7;4
